Terminal Aerodrome Forecast
Issued by NWS

Current Version | Previous Version | Text Only | Print | Product List | Glossary On
Versions: 1 2 3 4 5 6 7 8 9 10 11 12 13 14 15 16 17 18 19 20
000
FTUS46 KOTX 230720 AAA
TAFPUW
TAF AMD
KPUW 230720Z 2307/2406 10006KT P6SM FEW005
     FM231000 VRB02KT 5SM BR SCT005
     FM231500 11009KT 6SM BR SCT005 BKN013
     FM232200 25005KT 5SM BR BKN008=

USA.gov is the U.S. government's official web portal to all federal, state and local government web resources and services.